sensor_id;sensor_type;location;lat;lon;timestamp;P1;durP1;ratioP1;P2;durP2;ratioP2
35959;SDS011;22043;50.970;7.192;2023-04-12T00:00:00;7.03;;;1.42;;
35959;SDS011;22043;50.970;7.192;2023-04-12T00:02:25;8.82;;;1.63;;
35959;SDS011;22043;50.970;7.192;2023-04-12T00:04:51;5.03;;;1.50;;
35959;SDS011;22043;50.970;7.192;2023-04-12T00:07:22;8.27;;;1.30;;
35959;SDS011;22043;50.970;7.192;2023-04-12T00:09:48;5.57;;;1.73;;
35959;SDS011;22043;50.970;7.192;2023-04-12T00:12:13;7.53;;;1.60;;
35959;SDS011;22043;50.970;7.192;2023-04-12T00:14:39;13.23;;;2.95;;
35959;SDS011;22043;50.970;7.192;2023-04-12T00:17:04;6.53;;;1.40;;
35959;SDS011;22043;50.970;7.192;2023-04-12T00:19:30;9.00;;;1.73;;
35959;SDS011;22043;50.970;7.192;2023-04-12T00:21:55;8.80;;;2.53;;
35959;SDS011;22043;50.970;7.192;2023-04-12T00:24:21;5.05;;;1.65;;
35959;SDS011;22043;50.970;7.192;2023-04-12T00:26:46;13.75;;;1.73;;
35959;SDS011;22043;50.970;7.192;2023-04-12T00:29:12;9.13;;;2.58;;
35959;SDS011;22043;50.970;7.192;2023-04-12T00:31:37;6.95;;;1.83;;
35959;SDS011;22043;50.970;7.192;2023-04-12T00:34:03;7.05;;;1.58;;
35959;SDS011;22043;50.970;7.192;2023-04-12T00:36:28;6.97;;;2.13;;
35959;SDS011;22043;50.970;7.192;2023-04-12T00:38:54;9.70;;;1.98;;
35959;SDS011;22043;50.970;7.192;2023-04-12T00:41:19;5.88;;;1.67;;
35959;SDS011;22043;50.970;7.192;2023-04-12T00:43:45;9.32;;;1.90;;
35959;SDS011;22043;50.970;7.192;2023-04-12T00:46:11;9.57;;;2.92;;
35959;SDS011;22043;50.970;7.192;2023-04-12T00:48:37;7.07;;;1.88;;
35959;SDS011;22043;50.970;7.192;2023-04-12T00:51:04;9.63;;;2.13;;
35959;SDS011;22043;50.970;7.192;2023-04-12T00:53:31;7.03;;;2.53;;
35959;SDS011;22043;50.970;7.192;2023-04-12T00:55:57;8.48;;;1.58;;
35959;SDS011;22043;50.970;7.192;2023-04-12T00:58:23;3.88;;;1.42;;
35959;SDS011;22043;50.970;7.192;2023-04-12T01:00:54;11.43;;;2.05;;
35959;SDS011;22043;50.970;7.192;2023-04-12T01:03:21;6.85;;;1.80;;
35959;SDS011;22043;50.970;7.192;2023-04-12T01:06:08;9.27;;;1.80;;
35959;SDS011;22043;50.970;7.192;2023-04-12T01:11:37;11.60;;;2.13;;
35959;SDS011;22043;50.970;7.192;2023-04-12T01:16:46;12.25;;;1.98;;
35959;SDS011;22043;50.970;7.192;2023-04-12T01:24:50;9.43;;;1.55;;
35959;SDS011;22043;50.970;7.192;2023-04-12T01:27:47;10.25;;;2.35;;
35959;SDS011;22043;50.970;7.192;2023-04-12T01:30:17;7.93;;;1.88;;
35959;SDS011;22043;50.970;7.192;2023-04-12T01:32:44;7.05;;;1.77;;
35959;SDS011;22043;50.970;7.192;2023-04-12T01:35:14;9.57;;;1.63;;
35959;SDS011;22043;50.970;7.192;2023-04-12T01:37:42;6.97;;;2.20;;
35959;SDS011;22043;50.970;7.192;2023-04-12T01:40:08;6.72;;;1.67;;
35959;SDS011;22043;50.970;7.192;2023-04-12T01:42:34;8.38;;;2.13;;
35959;SDS011;22043;50.970;7.192;2023-04-12T01:45:00;4.85;;;1.52;;
35959;SDS011;22043;50.970;7.192;2023-04-12T01:47:27;6.40;;;1.83;;
35959;SDS011;22043;50.970;7.192;2023-04-12T01:52:44;10.65;;;2.25;;
35959;SDS011;22043;50.970;7.192;2023-04-12T01:55:18;9.07;;;1.77;;
35959;SDS011;22043;50.970;7.192;2023-04-12T01:57:46;9.63;;;1.80;;
35959;SDS011;22043;50.970;7.192;2023-04-12T02:00:13;6.32;;;1.70;;
35959;SDS011;22043;50.970;7.192;2023-04-12T02:02:41;6.75;;;2.00;;
35959;SDS011;22043;50.970;7.192;2023-04-12T02:05:06;9.27;;;1.98;;
35959;SDS011;22043;50.970;7.192;2023-04-12T02:07:33;8.52;;;1.70;;
35959;SDS011;22043;50.970;7.192;2023-04-12T02:09:59;4.90;;;1.73;;
35959;SDS011;22043;50.970;7.192;2023-04-12T02:12:25;7.43;;;1.80;;
35959;SDS011;22043;50.970;7.192;2023-04-12T02:14:50;4.60;;;1.58;;
35959;SDS011;22043;50.970;7.192;2023-04-12T02:17:16;7.05;;;1.95;;
35959;SDS011;22043;50.970;7.192;2023-04-12T02:19:42;7.03;;;1.60;;
35959;SDS011;22043;50.970;7.192;2023-04-12T02:22:09;7.93;;;1.88;;
35959;SDS011;22043;50.970;7.192;2023-04-12T02:24:35;7.43;;;1.45;;
35959;SDS011;22043;50.970;7.192;2023-04-12T02:27:00;5.97;;;1.45;;
35959;SDS011;22043;50.970;7.192;2023-04-12T02:29:26;6.28;;;1.63;;
35959;SDS011;22043;50.970;7.192;2023-04-12T02:31:52;5.43;;;1.58;;
35959;SDS011;22043;50.970;7.192;2023-04-12T02:34:22;4.75;;;1.38;;
35959;SDS011;22043;50.970;7.192;2023-04-12T02:36:55;7.55;;;1.60;;
35959;SDS011;22043;50.970;7.192;2023-04-12T02:39:21;9.23;;;1.42;;
35959;SDS011;22043;50.970;7.192;2023-04-12T02:41:49;9.00;;;1.50;;
35959;SDS011;22043;50.970;7.192;2023-04-12T02:44:15;5.85;;;1.55;;
35959;SDS011;22043;50.970;7.192;2023-04-12T02:46:46;9.60;;;1.40;;
35959;SDS011;22043;50.970;7.192;2023-04-12T02:49:13;8.65;;;2.10;;
35959;SDS011;22043;50.970;7.192;2023-04-12T02:51:40;5.30;;;1.67;;
35959;SDS011;22043;50.970;7.192;2023-04-12T02:54:06;7.40;;;1.80;;
35959;SDS011;22043;50.970;7.192;2023-04-12T02:56:50;5.97;;;1.80;;
35959;SDS011;22043;50.970;7.192;2023-04-12T02:59:39;8.23;;;2.00;;
35959;SDS011;22043;50.970;7.192;2023-04-12T03:02:12;4.90;;;1.67;;
35959;SDS011;22043;50.970;7.192;2023-04-12T03:04:38;8.30;;;1.50;;
35959;SDS011;22043;50.970;7.192;2023-04-12T03:07:08;8.70;;;1.52;;
35959;SDS011;22043;50.970;7.192;2023-04-12T03:09:48;8.63;;;1.77;;
35959;SDS011;22043;50.970;7.192;2023-04-12T03:12:15;5.97;;;1.83;;
35959;SDS011;22043;50.970;7.192;2023-04-12T03:14:50;10.98;;;1.88;;
35959;SDS011;22043;50.970;7.192;2023-04-12T03:17:16;4.70;;;1.48;;
35959;SDS011;22043;50.970;7.192;2023-04-12T03:19:42;6.53;;;1.33;;
35959;SDS011;22043;50.970;7.192;2023-04-12T03:22:08;4.10;;;1.42;;
35959;SDS011;22043;50.970;7.192;2023-04-12T03:24:37;5.35;;;1.40;;
35959;SDS011;22043;50.970;7.192;2023-04-12T03:27:03;5.10;;;2.25;;
35959;SDS011;22043;50.970;7.192;2023-04-12T03:29:32;2.88;;;1.20;;
35959;SDS011;22043;50.970;7.192;2023-04-12T03:31:58;5.85;;;1.85;;
35959;SDS011;22043;50.970;7.192;2023-04-12T03:34:25;6.95;;;1.90;;
35959;SDS011;22043;50.970;7.192;2023-04-12T03:37:01;6.75;;;1.80;;
35959;SDS011;22043;50.970;7.192;2023-04-12T03:39:45;5.45;;;1.65;;
35959;SDS011;22043;50.970;7.192;2023-04-12T03:42:16;8.27;;;2.13;;
35959;SDS011;22043;50.970;7.192;2023-04-12T03:44:43;6.13;;;1.77;;
35959;SDS011;22043;50.970;7.192;2023-04-12T03:47:11;7.68;;;2.30;;
35959;SDS011;22043;50.970;7.192;2023-04-12T03:49:37;5.30;;;1.63;;
35959;SDS011;22043;50.970;7.192;2023-04-12T03:52:05;5.80;;;1.75;;
35959;SDS011;22043;50.970;7.192;2023-04-12T03:54:32;11.25;;;2.80;;
35959;SDS011;22043;50.970;7.192;2023-04-12T03:57:02;6.30;;;1.67;;
35959;SDS011;22043;50.970;7.192;2023-04-12T03:59:36;6.40;;;3.17;;
35959;SDS011;22043;50.970;7.192;2023-04-12T04:02:02;5.07;;;1.88;;
35959;SDS011;22043;50.970;7.192;2023-04-12T04:04:30;4.78;;;2.13;;
35959;SDS011;22043;50.970;7.192;2023-04-12T04:06:59;6.78;;;1.77;;
35959;SDS011;22043;50.970;7.192;2023-04-12T04:09:27;5.97;;;1.98;;
35959;SDS011;22043;50.970;7.192;2023-04-12T04:11:52;8.15;;;2.40;;
35959;SDS011;22043;50.970;7.192;2023-04-12T04:14:19;6.18;;;2.63;;
35959;SDS011;22043;50.970;7.192;2023-04-12T04:16:45;6.22;;;1.80;;
35959;SDS011;22043;50.970;7.192;2023-04-12T04:19:11;8.15;;;2.05;;
35959;SDS011;22043;50.970;7.192;2023-04-12T04:21:36;7.53;;;2.25;;
35959;SDS011;22043;50.970;7.192;2023-04-12T04:24:04;5.05;;;1.95;;
35959;SDS011;22043;50.970;7.192;2023-04-12T04:26:35;6.35;;;1.92;;
35959;SDS011;22043;50.970;7.192;2023-04-12T04:29:22;6.82;;;2.17;;
35959;SDS011;22043;50.970;7.192;2023-04-12T04:31:50;5.05;;;1.70;;
35959;SDS011;22043;50.970;7.192;2023-04-12T04:34:15;7.25;;;3.40;;
35959;SDS011;22043;50.970;7.192;2023-04-12T04:36:45;7.45;;;1.95;;
35959;SDS011;22043;50.970;7.192;2023-04-12T04:39:15;4.35;;;1.52;;
35959;SDS011;22043;50.970;7.192;2023-04-12T04:41:43;8.13;;;2.28;;
35959;SDS011;22043;50.970;7.192;2023-04-12T04:44:14;5.03;;;1.70;;
35959;SDS011;22043;50.970;7.192;2023-04-12T04:46:53;4.35;;;1.80;;
35959;SDS011;22043;50.970;7.192;2023-04-12T04:49:18;6.13;;;1.67;;
35959;SDS011;22043;50.970;7.192;2023-04-12T04:51:44;6.82;;;1.88;;
35959;SDS011;22043;50.970;7.192;2023-04-12T04:54:11;4.30;;;1.97;;
35959;SDS011;22043;50.970;7.192;2023-04-12T04:56:39;4.85;;;2.00;;
35959;SDS011;22043;50.970;7.192;2023-04-12T04:59:06;3.95;;;1.63;;
35959;SDS011;22043;50.970;7.192;2023-04-12T05:01:32;5.55;;;1.42;;
35959;SDS011;22043;50.970;7.192;2023-04-12T05:04:00;7.68;;;1.88;;
35959;SDS011;22043;50.970;7.192;2023-04-12T05:06:26;3.38;;;1.50;;
35959;SDS011;22043;50.970;7.192;2023-04-12T05:08:52;4.95;;;1.75;;
35959;SDS011;22043;50.970;7.192;2023-04-12T05:11:18;3.03;;;1.45;;
35959;SDS011;22043;50.970;7.192;2023-04-12T05:13:44;3.78;;;1.50;;
35959;SDS011;22043;50.970;7.192;2023-04-12T05:16:10;3.58;;;1.30;;
35959;SDS011;22043;50.970;7.192;2023-04-12T05:18:36;7.05;;;1.60;;
35959;SDS011;22043;50.970;7.192;2023-04-12T05:21:02;3.03;;;1.35;;
35959;SDS011;22043;50.970;7.192;2023-04-12T05:23:31;3.75;;;1.70;;
35959;SDS011;22043;50.970;7.192;2023-04-12T05:25:59;4.43;;;1.80;;
35959;SDS011;22043;50.970;7.192;2023-04-12T05:28:25;4.18;;;1.70;;
35959;SDS011;22043;50.970;7.192;2023-04-12T05:30:51;4.60;;;1.63;;
35959;SDS011;22043;50.970;7.192;2023-04-12T05:33:21;5.38;;;1.77;;
35959;SDS011;22043;50.970;7.192;2023-04-12T05:35:47;5.03;;;1.55;;
35959;SDS011;22043;50.970;7.192;2023-04-12T05:38:12;7.88;;;1.85;;
35959;SDS011;22043;50.970;7.192;2023-04-12T05:40:38;3.90;;;1.23;;
35959;SDS011;22043;50.970;7.192;2023-04-12T05:45:32;4.47;;;1.60;;
35959;SDS011;22043;50.970;7.192;2023-04-12T05:47:58;2.67;;;1.30;;
35959;SDS011;22043;50.970;7.192;2023-04-12T05:50:24;4.85;;;1.70;;
35959;SDS011;22043;50.970;7.192;2023-04-12T05:52:50;4.10;;;1.70;;
35959;SDS011;22043;50.970;7.192;2023-04-12T05:57:45;7.20;;;1.50;;
35959;SDS011;22043;50.970;7.192;2023-04-12T06:00:14;4.25;;;1.55;;
35959;SDS011;22043;50.970;7.192;2023-04-12T06:02:44;2.92;;;1.30;;
35959;SDS011;22043;50.970;7.192;2023-04-12T06:05:11;6.60;;;1.60;;
35959;SDS011;22043;50.970;7.192;2023-04-12T06:07:37;3.88;;;1.40;;
35959;SDS011;22043;50.970;7.192;2023-04-12T06:10:04;4.07;;;1.50;;
35959;SDS011;22043;50.970;7.192;2023-04-12T06:12:31;3.47;;;1.55;;
35959;SDS011;22043;50.970;7.192;2023-04-12T06:14:57;4.57;;;1.45;;
35959;SDS011;22043;50.970;7.192;2023-04-12T06:17:22;5.25;;;1.30;;
35959;SDS011;22043;50.970;7.192;2023-04-12T06:19:48;4.97;;;1.80;;
35959;SDS011;22043;50.970;7.192;2023-04-12T06:22:14;4.00;;;1.30;;
35959;SDS011;22043;50.970;7.192;2023-04-12T06:24:40;3.28;;;1.10;;
35959;SDS011;22043;50.970;7.192;2023-04-12T06:27:07;3.67;;;1.10;;
35959;SDS011;22043;50.970;7.192;2023-04-12T06:29:33;4.53;;;1.42;;
35959;SDS011;22043;50.970;7.192;2023-04-12T06:31:58;4.35;;;1.17;;
35959;SDS011;22043;50.970;7.192;2023-04-12T06:34:24;5.43;;;1.23;;
35959;SDS011;22043;50.970;7.192;2023-04-12T06:36:54;4.65;;;1.70;;
35959;SDS011;22043;50.970;7.192;2023-04-12T06:39:21;5.03;;;1.60;;
35959;SDS011;22043;50.970;7.192;2023-04-12T06:41:47;2.95;;;1.35;;
35959;SDS011;22043;50.970;7.192;2023-04-12T06:44:17;1.80;;;1.10;;
35959;SDS011;22043;50.970;7.192;2023-04-12T06:46:43;2.70;;;1.38;;
35959;SDS011;22043;50.970;7.192;2023-04-12T06:49:08;3.40;;;1.45;;
35959;SDS011;22043;50.970;7.192;2023-04-12T06:51:34;4.32;;;1.30;;
35959;SDS011;22043;50.970;7.192;2023-04-12T06:54:00;3.55;;;1.30;;
35959;SDS011;22043;50.970;7.192;2023-04-12T06:56:26;3.67;;;1.20;;
35959;SDS011;22043;50.970;7.192;2023-04-12T06:58:51;4.28;;;1.30;;
35959;SDS011;22043;50.970;7.192;2023-04-12T07:01:17;4.70;;;1.20;;
35959;SDS011;22043;50.970;7.192;2023-04-12T07:03:42;3.80;;;1.00;;
35959;SDS011;22043;50.970;7.192;2023-04-12T07:06:07;3.95;;;1.50;;
35959;SDS011;22043;50.970;7.192;2023-04-12T07:08:36;2.88;;;1.20;;
35959;SDS011;22043;50.970;7.192;2023-04-12T07:11:02;2.97;;;1.10;;
35959;SDS011;22043;50.970;7.192;2023-04-12T07:13:28;4.55;;;2.13;;
35959;SDS011;22043;50.970;7.192;2023-04-12T07:15:54;3.33;;;1.02;;
35959;SDS011;22043;50.970;7.192;2023-04-12T07:18:20;5.25;;;1.50;;
35959;SDS011;22043;50.970;7.192;2023-04-12T07:20:46;3.92;;;1.20;;
35959;SDS011;22043;50.970;7.192;2023-04-12T07:23:12;3.13;;;1.20;;
35959;SDS011;22043;50.970;7.192;2023-04-12T07:25:38;2.08;;;1.10;;
35959;SDS011;22043;50.970;7.192;2023-04-12T07:28:03;4.32;;;1.02;;
35959;SDS011;22043;50.970;7.192;2023-04-12T07:30:30;3.03;;;1.20;;
35959;SDS011;22043;50.970;7.192;2023-04-12T07:32:55;3.05;;;0.90;;
35959;SDS011;22043;50.970;7.192;2023-04-12T07:35:21;3.30;;;1.10;;
35959;SDS011;22043;50.970;7.192;2023-04-12T07:37:46;3.55;;;1.10;;
35959;SDS011;22043;50.970;7.192;2023-04-12T07:40:12;4.60;;;1.00;;
35959;SDS011;22043;50.970;7.192;2023-04-12T07:42:37;2.00;;;1.08;;
35959;SDS011;22043;50.970;7.192;2023-04-12T07:45:02;4.10;;;1.08;;
35959;SDS011;22043;50.970;7.192;2023-04-12T07:47:28;3.47;;;1.20;;
35959;SDS011;22043;50.970;7.192;2023-04-12T07:49:53;2.25;;;0.90;;
35959;SDS011;22043;50.970;7.192;2023-04-12T07:52:19;3.58;;;1.40;;
35959;SDS011;22043;50.970;7.192;2023-04-12T07:54:45;2.80;;;0.85;;
35959;SDS011;22043;50.970;7.192;2023-04-12T07:57:11;3.40;;;0.80;;
35959;SDS011;22043;50.970;7.192;2023-04-12T07:59:36;3.47;;;1.20;;
35959;SDS011;22043;50.970;7.192;2023-04-12T08:02:01;2.50;;;0.90;;
35959;SDS011;22043;50.970;7.192;2023-04-12T08:04:27;3.85;;;1.08;;
35959;SDS011;22043;50.970;7.192;2023-04-12T08:06:54;1.83;;;1.02;;
35959;SDS011;22043;50.970;7.192;2023-04-12T08:09:19;1.83;;;1.27;;
35959;SDS011;22043;50.970;7.192;2023-04-12T08:11:45;3.15;;;0.98;;
35959;SDS011;22043;50.970;7.192;2023-04-12T08:14:11;2.05;;;1.00;;
35959;SDS011;22043;50.970;7.192;2023-04-12T08:16:37;1.38;;;0.70;;
35959;SDS011;22043;50.970;7.192;2023-04-12T08:19:02;4.20;;;1.10;;
35959;SDS011;22043;50.970;7.192;2023-04-12T08:21:28;2.55;;;1.05;;
35959;SDS011;22043;50.970;7.192;2023-04-12T08:23:54;3.63;;;0.88;;
35959;SDS011;22043;50.970;7.192;2023-04-12T08:26:20;2.22;;;1.20;;
35959;SDS011;22043;50.970;7.192;2023-04-12T08:28:45;2.58;;;1.02;;
35959;SDS011;22043;50.970;7.192;2023-04-12T08:31:11;2.35;;;0.88;;
35959;SDS011;22043;50.970;7.192;2023-04-12T08:33:37;4.05;;;1.10;;
35959;SDS011;22043;50.970;7.192;2023-04-12T08:36:02;1.88;;;1.00;;
35959;SDS011;22043;50.970;7.192;2023-04-12T08:38:28;5.43;;;1.10;;
35959;SDS011;22043;50.970;7.192;2023-04-12T08:40:53;3.17;;;1.15;;
35959;SDS011;22043;50.970;7.192;2023-04-12T08:43:18;3.38;;;1.20;;
35959;SDS011;22043;50.970;7.192;2023-04-12T08:45:47;2.85;;;1.10;;
35959;SDS011;22043;50.970;7.192;2023-04-12T08:48:13;2.07;;;1.33;;
35959;SDS011;22043;50.970;7.192;2023-04-12T08:53:08;1.17;;;0.80;;
35959;SDS011;22043;50.970;7.192;2023-04-12T08:55:34;3.30;;;0.82;;
35959;SDS011;22043;50.970;7.192;2023-04-12T08:57:59;1.63;;;0.80;;
35959;SDS011;22043;50.970;7.192;2023-04-12T09:02:53;1.70;;;0.85;;
35959;SDS011;22043;50.970;7.192;2023-04-12T09:05:18;2.03;;;0.98;;
35959;SDS011;22043;50.970;7.192;2023-04-12T09:07:44;3.47;;;0.90;;
35959;SDS011;22043;50.970;7.192;2023-04-12T09:10:09;1.80;;;0.70;;
35959;SDS011;22043;50.970;7.192;2023-04-12T09:12:35;0.98;;;0.73;;
35959;SDS011;22043;50.970;7.192;2023-04-12T09:15:11;1.20;;;0.65;;
35959;SDS011;22043;50.970;7.192;2023-04-12T09:17:39;2.92;;;0.90;;
35959;SDS011;22043;50.970;7.192;2023-04-12T09:22:41;2.35;;;1.13;;
35959;SDS011;22043;50.970;7.192;2023-04-12T09:25:13;2.70;;;0.90;;
35959;SDS011;22043;50.970;7.192;2023-04-12T09:30:12;1.42;;;0.77;;
35959;SDS011;22043;50.970;7.192;2023-04-12T09:32:38;2.25;;;0.73;;
35959;SDS011;22043;50.970;7.192;2023-04-12T09:35:03;1.17;;;0.70;;
35959;SDS011;22043;50.970;7.192;2023-04-12T09:37:29;1.35;;;0.60;;
35959;SDS011;22043;50.970;7.192;2023-04-12T09:42:28;1.80;;;0.80;;
35959;SDS011;22043;50.970;7.192;2023-04-12T09:44:55;2.10;;;0.90;;
35959;SDS011;22043;50.970;7.192;2023-04-12T09:47:21;1.20;;;0.70;;
35959;SDS011;22043;50.970;7.192;2023-04-12T09:50:00;1.30;;;0.70;;
35959;SDS011;22043;50.970;7.192;2023-04-12T09:52:33;1.58;;;0.90;;
35959;SDS011;22043;50.970;7.192;2023-04-12T09:55:01;2.13;;;0.68;;
35959;SDS011;22043;50.970;7.192;2023-04-12T09:57:27;2.53;;;0.88;;
35959;SDS011;22043;50.970;7.192;2023-04-12T09:59:53;4.03;;;0.85;;
35959;SDS011;22043;50.970;7.192;2023-04-12T10:02:25;1.50;;;0.75;;
35959;SDS011;22043;50.970;7.192;2023-04-12T10:04:52;2.17;;;0.75;;
35959;SDS011;22043;50.970;7.192;2023-04-12T10:07:18;1.95;;;0.65;;
35959;SDS011;22043;50.970;7.192;2023-04-12T10:09:44;1.75;;;0.85;;
35959;SDS011;22043;50.970;7.192;2023-04-12T10:12:10;1.98;;;0.80;;
35959;SDS011;22043;50.970;7.192;2023-04-12T10:14:36;2.10;;;1.08;;
35959;SDS011;22043;50.970;7.192;2023-04-12T10:17:02;2.22;;;0.85;;
35959;SDS011;22043;50.970;7.192;2023-04-12T10:19:29;3.30;;;1.20;;
35959;SDS011;22043;50.970;7.192;2023-04-12T10:21:55;1.17;;;0.75;;
35959;SDS011;22043;50.970;7.192;2023-04-12T10:24:22;2.45;;;0.98;;
35959;SDS011;22043;50.970;7.192;2023-04-12T10:26:49;2.40;;;0.93;;
35959;SDS011;22043;50.970;7.192;2023-04-12T10:29:28;4.35;;;1.00;;
35959;SDS011;22043;50.970;7.192;2023-04-12T10:31:55;1.85;;;0.90;;
35959;SDS011;22043;50.970;7.192;2023-04-12T10:34:28;2.63;;;1.00;;
35959;SDS011;22043;50.970;7.192;2023-04-12T10:36:58;2.45;;;1.40;;
35959;SDS011;22043;50.970;7.192;2023-04-12T10:39:36;2.70;;;1.20;;
35959;SDS011;22043;50.970;7.192;2023-04-12T10:44:49;1.92;;;0.82;;
35959;SDS011;22043;50.970;7.192;2023-04-12T10:47:22;1.70;;;0.77;;
35959;SDS011;22043;50.970;7.192;2023-04-12T10:50:31;2.33;;;0.80;;
35959;SDS011;22043;50.970;7.192;2023-04-12T10:55:34;1.25;;;0.73;;
35959;SDS011;22043;50.970;7.192;2023-04-12T10:57:59;1.90;;;0.95;;
35959;SDS011;22043;50.970;7.192;2023-04-12T11:00:25;2.47;;;0.95;;
35959;SDS011;22043;50.970;7.192;2023-04-12T11:03:23;2.70;;;0.73;;
35959;SDS011;22043;50.970;7.192;2023-04-12T11:08:57;4.38;;;0.90;;
35959;SDS011;22043;50.970;7.192;2023-04-12T11:11:23;5.68;;;0.80;;
35959;SDS011;22043;50.970;7.192;2023-04-12T11:13:53;2.75;;;1.10;;
35959;SDS011;22043;50.970;7.192;2023-04-12T11:16:19;1.85;;;1.10;;
35959;SDS011;22043;50.970;7.192;2023-04-12T11:18:45;3.15;;;1.05;;
35959;SDS011;22043;50.970;7.192;2023-04-12T11:21:11;2.47;;;1.00;;
35959;SDS011;22043;50.970;7.192;2023-04-12T11:23:37;3.50;;;1.00;;
35959;SDS011;22043;50.970;7.192;2023-04-12T11:26:04;3.20;;;1.15;;
35959;SDS011;22043;50.970;7.192;2023-04-12T11:28:30;3.45;;;1.40;;
35959;SDS011;22043;50.970;7.192;2023-04-12T11:30:55;3.58;;;1.10;;
35959;SDS011;22043;50.970;7.192;2023-04-12T11:33:39;3.67;;;1.27;;
35959;SDS011;22043;50.970;7.192;2023-04-12T11:36:06;4.93;;;1.60;;
35959;SDS011;22043;50.970;7.192;2023-04-12T11:38:33;3.97;;;1.20;;
35959;SDS011;22043;50.970;7.192;2023-04-12T11:41:00;2.33;;;1.23;;
35959;SDS011;22043;50.970;7.192;2023-04-12T11:43:25;3.50;;;1.20;;
35959;SDS011;22043;50.970;7.192;2023-04-12T11:45:57;4.60;;;1.67;;
35959;SDS011;22043;50.970;7.192;2023-04-12T11:48:24;3.67;;;1.70;;
35959;SDS011;22043;50.970;7.192;2023-04-12T11:50:53;2.83;;;1.75;;
35959;SDS011;22043;50.970;7.192;2023-04-12T11:53:18;4.03;;;2.30;;
35959;SDS011;22043;50.970;7.192;2023-04-12T11:55:48;4.47;;;2.67;;
35959;SDS011;22043;50.970;7.192;2023-04-12T11:58:14;4.32;;;2.33;;
35959;SDS011;22043;50.970;7.192;2023-04-12T12:00:46;6.53;;;2.70;;
35959;SDS011;22043;50.970;7.192;2023-04-12T12:03:11;4.28;;;2.45;;
35959;SDS011;22043;50.970;7.192;2023-04-12T12:05:38;8.60;;;3.10;;
35959;SDS011;22043;50.970;7.192;2023-04-12T12:08:06;5.00;;;2.85;;
35959;SDS011;22043;50.970;7.192;2023-04-12T12:10:33;4.28;;;2.63;;
35959;SDS011;22043;50.970;7.192;2023-04-12T12:12:59;6.43;;;3.28;;
35959;SDS011;22043;50.970;7.192;2023-04-12T12:15:28;6.97;;;3.20;;
35959;SDS011;22043;50.970;7.192;2023-04-12T12:17:55;7.18;;;3.50;;
35959;SDS011;22043;50.970;7.192;2023-04-12T12:20:20;7.78;;;3.10;;
35959;SDS011;22043;50.970;7.192;2023-04-12T12:22:46;6.85;;;3.10;;
35959;SDS011;22043;50.970;7.192;2023-04-12T12:25:13;6.45;;;2.80;;
35959;SDS011;22043;50.970;7.192;2023-04-12T12:27:38;4.95;;;2.20;;
35959;SDS011;22043;50.970;7.192;2023-04-12T12:30:12;6.28;;;3.22;;
35959;SDS011;22043;50.970;7.192;2023-04-12T12:32:41;5.35;;;2.40;;
35959;SDS011;22043;50.970;7.192;2023-04-12T12:35:10;6.63;;;2.83;;
35959;SDS011;22043;50.970;7.192;2023-04-12T12:37:38;6.22;;;2.75;;
35959;SDS011;22043;50.970;7.192;2023-04-12T12:40:13;7.63;;;2.65;;
35959;SDS011;22043;50.970;7.192;2023-04-12T12:42:51;6.18;;;2.80;;
35959;SDS011;22043;50.970;7.192;2023-04-12T12:45:19;5.40;;;2.50;;
35959;SDS011;22043;50.970;7.192;2023-04-12T12:47:47;8.52;;;2.65;;
35959;SDS011;22043;50.970;7.192;2023-04-12T12:50:13;6.43;;;2.72;;
35959;SDS011;22043;50.970;7.192;2023-04-12T12:52:41;7.88;;;2.80;;
35959;SDS011;22043;50.970;7.192;2023-04-12T12:55:11;8.05;;;2.92;;
35959;SDS011;22043;50.970;7.192;2023-04-12T12:57:37;7.43;;;2.55;;
35959;SDS011;22043;50.970;7.192;2023-04-12T13:00:03;7.63;;;2.33;;
35959;SDS011;22043;50.970;7.192;2023-04-12T13:02:29;6.15;;;2.38;;
35959;SDS011;22043;50.970;7.192;2023-04-12T13:04:55;4.75;;;2.40;;
35959;SDS011;22043;50.970;7.192;2023-04-12T13:07:21;4.43;;;1.85;;
35959;SDS011;22043;50.970;7.192;2023-04-12T13:09:46;7.10;;;2.13;;
35959;SDS011;22043;50.970;7.192;2023-04-12T13:12:12;4.18;;;1.92;;
35959;SDS011;22043;50.970;7.192;2023-04-12T13:14:39;5.07;;;1.35;;
35959;SDS011;22043;50.970;7.192;2023-04-12T13:17:06;5.65;;;1.80;;
35959;SDS011;22043;50.970;7.192;2023-04-12T13:19:31;6.18;;;1.67;;
35959;SDS011;22043;50.970;7.192;2023-04-12T13:21:57;4.43;;;1.75;;
35959;SDS011;22043;50.970;7.192;2023-04-12T13:24:23;4.57;;;1.40;;
35959;SDS011;22043;50.970;7.192;2023-04-12T13:26:49;3.70;;;1.08;;
35959;SDS011;22043;50.970;7.192;2023-04-12T13:29:14;3.67;;;1.40;;
35959;SDS011;22043;50.970;7.192;2023-04-12T13:31:40;4.50;;;1.50;;
35959;SDS011;22043;50.970;7.192;2023-04-12T13:34:05;3.05;;;1.10;;
35959;SDS011;22043;50.970;7.192;2023-04-12T13:36:30;6.93;;;1.42;;
35959;SDS011;22043;50.970;7.192;2023-04-12T13:38:56;3.55;;;1.10;;
35959;SDS011;22043;50.970;7.192;2023-04-12T13:41:22;5.85;;;1.40;;
35959;SDS011;22043;50.970;7.192;2023-04-12T13:43:47;4.63;;;1.00;;
35959;SDS011;22043;50.970;7.192;2023-04-12T13:46:13;5.50;;;1.13;;
35959;SDS011;22043;50.970;7.192;2023-04-12T13:48:38;5.80;;;1.08;;
35959;SDS011;22043;50.970;7.192;2023-04-12T13:51:04;5.07;;;0.70;;
35959;SDS011;22043;50.970;7.192;2023-04-12T13:53:29;6.10;;;1.38;;
35959;SDS011;22043;50.970;7.192;2023-04-12T13:55:55;7.85;;;1.30;;
35959;SDS011;22043;50.970;7.192;2023-04-12T13:58:20;5.78;;;1.42;;
35959;SDS011;22043;50.970;7.192;2023-04-12T14:00:46;4.75;;;1.30;;
35959;SDS011;22043;50.970;7.192;2023-04-12T14:03:11;5.70;;;1.42;;
35959;SDS011;22043;50.970;7.192;2023-04-12T14:05:36;9.88;;;1.30;;
35959;SDS011;22043;50.970;7.192;2023-04-12T14:08:02;4.60;;;1.17;;
35959;SDS011;22043;50.970;7.192;2023-04-12T14:10:27;10.15;;;0.95;;
35959;SDS011;22043;50.970;7.192;2023-04-12T14:12:53;6.07;;;1.50;;
35959;SDS011;22043;50.970;7.192;2023-04-12T14:15:18;4.45;;;1.42;;
35959;SDS011;22043;50.970;7.192;2023-04-12T14:17:43;4.78;;;1.10;;
35959;SDS011;22043;50.970;7.192;2023-04-12T14:20:09;4.47;;;0.95;;
35959;SDS011;22043;50.970;7.192;2023-04-12T14:22:35;5.05;;;0.93;;
35959;SDS011;22043;50.970;7.192;2023-04-12T14:25:01;5.03;;;1.63;;
35959;SDS011;22043;50.970;7.192;2023-04-12T14:27:27;8.38;;;0.80;;
35959;SDS011;22043;50.970;7.192;2023-04-12T14:29:52;4.03;;;0.88;;
35959;SDS011;22043;50.970;7.192;2023-04-12T14:32:18;5.65;;;1.00;;
35959;SDS011;22043;50.970;7.192;2023-04-12T14:34:43;6.45;;;1.38;;
35959;SDS011;22043;50.970;7.192;2023-04-12T14:37:09;4.25;;;0.90;;
35959;SDS011;22043;50.970;7.192;2023-04-12T14:39:34;7.63;;;1.60;;
35959;SDS011;22043;50.970;7.192;2023-04-12T14:42:00;3.72;;;0.93;;
35959;SDS011;22043;50.970;7.192;2023-04-12T14:44:26;4.88;;;1.00;;
35959;SDS011;22043;50.970;7.192;2023-04-12T14:46:52;6.65;;;1.52;;
35959;SDS011;22043;50.970;7.192;2023-04-12T14:49:17;8.10;;;1.67;;
35959;SDS011;22043;50.970;7.192;2023-04-12T14:51:42;8.00;;;1.60;;
35959;SDS011;22043;50.970;7.192;2023-04-12T14:54:08;6.22;;;1.70;;
35959;SDS011;22043;50.970;7.192;2023-04-12T14:56:33;9.13;;;1.40;;
35959;SDS011;22043;50.970;7.192;2023-04-12T14:58:59;8.07;;;1.70;;
35959;SDS011;22043;50.970;7.192;2023-04-12T15:01:24;9.77;;;2.42;;
35959;SDS011;22043;50.970;7.192;2023-04-12T15:03:51;9.15;;;1.70;;
35959;SDS011;22043;50.970;7.192;2023-04-12T15:06:17;9.48;;;1.50;;
35959;SDS011;22043;50.970;7.192;2023-04-12T15:08:43;6.60;;;1.80;;
35959;SDS011;22043;50.970;7.192;2023-04-12T15:11:08;7.13;;;1.48;;
35959;SDS011;22043;50.970;7.192;2023-04-12T15:13:35;5.50;;;1.30;;
35959;SDS011;22043;50.970;7.192;2023-04-12T15:16:07;7.38;;;1.55;;
35959;SDS011;22043;50.970;7.192;2023-04-12T15:18:36;4.18;;;1.23;;
35959;SDS011;22043;50.970;7.192;2023-04-12T15:21:07;9.88;;;1.73;;
35959;SDS011;22043;50.970;7.192;2023-04-12T15:23:33;12.88;;;2.35;;
35959;SDS011;22043;50.970;7.192;2023-04-12T15:25:59;6.93;;;1.33;;
35959;SDS011;22043;50.970;7.192;2023-04-12T15:28:25;7.63;;;1.50;;